sensor_id;sensor_type;location;lat;lon;timestamp;P1;durP1;ratioP1;P2;durP2;ratioP2
10283;SDS011;5187;52.378;9.018;2022-08-07T00:01:15;6.37;;;2.80;;
10283;SDS011;5187;52.378;9.018;2022-08-07T00:04:04;4.73;;;2.80;;
10283;SDS011;5187;52.378;9.018;2022-08-07T00:06:35;3.73;;;2.97;;
10283;SDS011;5187;52.378;9.018;2022-08-07T00:09:17;2.93;;;2.73;;
10283;SDS011;5187;52.378;9.018;2022-08-07T00:11:47;3.30;;;3.00;;
10283;SDS011;5187;52.378;9.018;2022-08-07T00:14:23;3.53;;;3.23;;
10283;SDS011;5187;52.378;9.018;2022-08-07T00:16:58;4.40;;;3.00;;
10283;SDS011;5187;52.378;9.018;2022-08-07T00:19:28;3.43;;;3.13;;
10283;SDS011;5187;52.378;9.018;2022-08-07T00:22:16;6.40;;;3.67;;
10283;SDS011;5187;52.378;9.018;2022-08-07T00:25:01;3.27;;;2.97;;
10283;SDS011;5187;52.378;9.018;2022-08-07T00:27:30;3.70;;;2.83;;
10283;SDS011;5187;52.378;9.018;2022-08-07T00:30:18;3.90;;;3.00;;
10283;SDS011;5187;52.378;9.018;2022-08-07T00:32:55;3.93;;;3.17;;
10283;SDS011;5187;52.378;9.018;2022-08-07T00:35:24;3.50;;;3.20;;
10283;SDS011;5187;52.378;9.018;2022-08-07T00:37:55;5.60;;;3.47;;
10283;SDS011;5187;52.378;9.018;2022-08-07T00:40:24;4.10;;;3.70;;
10283;SDS011;5187;52.378;9.018;2022-08-07T00:43:06;4.57;;;3.90;;
10283;SDS011;5187;52.378;9.018;2022-08-07T00:45:36;3.87;;;3.50;;
10283;SDS011;5187;52.378;9.018;2022-08-07T00:48:05;3.80;;;3.50;;
10283;SDS011;5187;52.378;9.018;2022-08-07T00:50:36;3.53;;;3.23;;
10283;SDS011;5187;52.378;9.018;2022-08-07T00:53:16;3.80;;;3.50;;
10283;SDS011;5187;52.378;9.018;2022-08-07T00:55:46;3.50;;;3.23;;
10283;SDS011;5187;52.378;9.018;2022-08-07T00:58:28;5.00;;;3.00;;
10283;SDS011;5187;52.378;9.018;2022-08-07T01:00:57;4.17;;;2.90;;
10283;SDS011;5187;52.378;9.018;2022-08-07T01:03:27;3.80;;;3.03;;
10283;SDS011;5187;52.378;9.018;2022-08-07T01:06:16;3.50;;;3.20;;
10283;SDS011;5187;52.378;9.018;2022-08-07T01:08:47;4.23;;;3.17;;
10283;SDS011;5187;52.378;9.018;2022-08-07T01:11:19;3.43;;;3.13;;
10283;SDS011;5187;52.378;9.018;2022-08-07T01:14:07;4.30;;;3.57;;
10283;SDS011;5187;52.378;9.018;2022-08-07T01:16:36;3.53;;;3.23;;
10283;SDS011;5187;52.378;9.018;2022-08-07T01:19:13;3.67;;;3.37;;
10283;SDS011;5187;52.378;9.018;2022-08-07T01:21:46;4.77;;;3.40;;
10283;SDS011;5187;52.378;9.018;2022-08-07T01:24:19;4.20;;;3.40;;
10283;SDS011;5187;52.378;9.018;2022-08-07T01:26:48;3.63;;;3.00;;
10283;SDS011;5187;52.378;9.018;2022-08-07T01:29:19;4.10;;;3.30;;
10283;SDS011;5187;52.378;9.018;2022-08-07T01:31:48;3.50;;;3.20;;
10283;SDS011;5187;52.378;9.018;2022-08-07T01:34:16;3.63;;;3.30;;
10283;SDS011;5187;52.378;9.018;2022-08-07T01:36:57;3.23;;;3.00;;
10283;SDS011;5187;52.378;9.018;2022-08-07T01:39:26;3.63;;;3.33;;
10283;SDS011;5187;52.378;9.018;2022-08-07T01:42:12;3.43;;;3.13;;
10283;SDS011;5187;52.378;9.018;2022-08-07T01:45:01;3.77;;;3.47;;
10283;SDS011;5187;52.378;9.018;2022-08-07T01:47:43;3.73;;;3.43;;
10283;SDS011;5187;52.378;9.018;2022-08-07T01:50:32;4.00;;;3.60;;
10283;SDS011;5187;52.378;9.018;2022-08-07T01:53:03;3.63;;;3.33;;
10283;SDS011;5187;52.378;9.018;2022-08-07T01:55:35;4.20;;;3.47;;
10283;SDS011;5187;52.378;9.018;2022-08-07T01:58:06;3.53;;;3.20;;
10283;SDS011;5187;52.378;9.018;2022-08-07T02:00:56;3.50;;;3.20;;
10283;SDS011;5187;52.378;9.018;2022-08-07T02:03:48;5.00;;;3.50;;
10283;SDS011;5187;52.378;9.018;2022-08-07T02:06:18;4.83;;;3.40;;
10283;SDS011;5187;52.378;9.018;2022-08-07T02:08:59;3.80;;;2.93;;
10283;SDS011;5187;52.378;9.018;2022-08-07T02:11:29;4.57;;;3.57;;
10283;SDS011;5187;52.378;9.018;2022-08-07T02:14:20;5.50;;;4.40;;
10283;SDS011;5187;52.378;9.018;2022-08-07T02:17:06;4.57;;;4.17;;
10283;SDS011;5187;52.378;9.018;2022-08-07T02:19:36;4.80;;;4.30;;
10283;SDS011;5187;52.378;9.018;2022-08-07T02:22:26;5.87;;;4.60;;
10283;SDS011;5187;52.378;9.018;2022-08-07T02:24:57;5.90;;;4.77;;
10283;SDS011;5187;52.378;9.018;2022-08-07T02:27:32;4.87;;;4.37;;
10283;SDS011;5187;52.378;9.018;2022-08-07T02:30:06;4.50;;;3.83;;
10283;SDS011;5187;52.378;9.018;2022-08-07T02:32:39;4.50;;;3.50;;
10283;SDS011;5187;52.378;9.018;2022-08-07T02:35:28;4.40;;;3.97;;
10283;SDS011;5187;52.378;9.018;2022-08-07T02:38:17;4.47;;;3.43;;
10283;SDS011;5187;52.378;9.018;2022-08-07T02:40:55;6.23;;;4.20;;
10283;SDS011;5187;52.378;9.018;2022-08-07T02:43:24;5.97;;;4.30;;
10283;SDS011;5187;52.378;9.018;2022-08-07T02:45:54;5.63;;;3.93;;
10283;SDS011;5187;52.378;9.018;2022-08-07T02:48:28;4.47;;;3.80;;
10283;SDS011;5187;52.378;9.018;2022-08-07T02:50:57;6.33;;;4.50;;
10283;SDS011;5187;52.378;9.018;2022-08-07T02:53:27;4.43;;;4.03;;
10283;SDS011;5187;52.378;9.018;2022-08-07T02:56:06;5.57;;;4.20;;
10283;SDS011;5187;52.378;9.018;2022-08-07T02:58:46;5.37;;;4.77;;
10283;SDS011;5187;52.378;9.018;2022-08-07T03:01:19;5.93;;;4.23;;
10283;SDS011;5187;52.378;9.018;2022-08-07T03:04:02;4.53;;;4.17;;
10283;SDS011;5187;52.378;9.018;2022-08-07T03:06:37;4.90;;;4.00;;
10283;SDS011;5187;52.378;9.018;2022-08-07T03:09:10;4.67;;;3.80;;
10283;SDS011;5187;52.378;9.018;2022-08-07T03:11:40;4.30;;;3.90;;
10283;SDS011;5187;52.378;9.018;2022-08-07T03:14:22;4.10;;;3.67;;
10283;SDS011;5187;52.378;9.018;2022-08-07T03:16:53;5.77;;;4.13;;
10283;SDS011;5187;52.378;9.018;2022-08-07T03:19:22;5.07;;;4.50;;
10283;SDS011;5187;52.378;9.018;2022-08-07T03:22:02;4.70;;;4.30;;
10283;SDS011;5187;52.378;9.018;2022-08-07T03:24:32;5.17;;;4.70;;
10283;SDS011;5187;52.378;9.018;2022-08-07T03:27:03;6.77;;;4.90;;
10283;SDS011;5187;52.378;9.018;2022-08-07T03:29:36;4.93;;;4.43;;
10283;SDS011;5187;52.378;9.018;2022-08-07T03:32:15;5.63;;;5.07;;
10283;SDS011;5187;52.378;9.018;2022-08-07T03:34:44;5.93;;;4.83;;
10283;SDS011;5187;52.378;9.018;2022-08-07T03:37:34;5.70;;;5.20;;
10283;SDS011;5187;52.378;9.018;2022-08-07T03:40:19;6.33;;;4.97;;
10283;SDS011;5187;52.378;9.018;2022-08-07T03:42:54;5.87;;;5.27;;
10283;SDS011;5187;52.378;9.018;2022-08-07T03:45:23;5.47;;;4.97;;
10283;SDS011;5187;52.378;9.018;2022-08-07T03:47:56;5.63;;;4.63;;
10283;SDS011;5187;52.378;9.018;2022-08-07T03:50:25;7.33;;;4.70;;
10283;SDS011;5187;52.378;9.018;2022-08-07T03:52:55;6.20;;;4.63;;
10283;SDS011;5187;52.378;9.018;2022-08-07T03:55:24;5.87;;;5.13;;
10283;SDS011;5187;52.378;9.018;2022-08-07T03:58:15;5.83;;;5.23;;
10283;SDS011;5187;52.378;9.018;2022-08-07T04:01:03;6.13;;;4.83;;
10283;SDS011;5187;52.378;9.018;2022-08-07T04:03:36;5.03;;;4.53;;
10283;SDS011;5187;52.378;9.018;2022-08-07T04:06:20;6.50;;;4.90;;
10283;SDS011;5187;52.378;9.018;2022-08-07T04:09:03;5.23;;;4.33;;
10283;SDS011;5187;52.378;9.018;2022-08-07T04:11:40;5.40;;;4.90;;
10283;SDS011;5187;52.378;9.018;2022-08-07T04:14:30;5.90;;;5.27;;
10283;SDS011;5187;52.378;9.018;2022-08-07T04:17:09;5.53;;;5.03;;
10283;SDS011;5187;52.378;9.018;2022-08-07T04:19:47;5.37;;;4.87;;
10283;SDS011;5187;52.378;9.018;2022-08-07T04:22:20;5.50;;;5.00;;
10283;SDS011;5187;52.378;9.018;2022-08-07T04:24:55;5.63;;;5.07;;
10283;SDS011;5187;52.378;9.018;2022-08-07T04:27:24;6.23;;;5.43;;
10283;SDS011;5187;52.378;9.018;2022-08-07T04:29:54;6.20;;;5.57;;
10283;SDS011;5187;52.378;9.018;2022-08-07T04:32:29;5.77;;;5.13;;
10283;SDS011;5187;52.378;9.018;2022-08-07T04:35:00;6.37;;;5.47;;
10283;SDS011;5187;52.378;9.018;2022-08-07T04:37:31;8.80;;;6.70;;
10283;SDS011;5187;52.378;9.018;2022-08-07T04:40:20;6.23;;;5.63;;
10283;SDS011;5187;52.378;9.018;2022-08-07T04:42:55;6.57;;;5.40;;
10283;SDS011;5187;52.378;9.018;2022-08-07T04:48:31;5.67;;;5.10;;
10283;SDS011;5187;52.378;9.018;2022-08-07T04:51:03;7.50;;;5.37;;
10283;SDS011;5187;52.378;9.018;2022-08-07T04:53:36;6.53;;;5.67;;
10283;SDS011;5187;52.378;9.018;2022-08-07T04:56:29;6.37;;;5.53;;
10283;SDS011;5187;52.378;9.018;2022-08-07T04:59:20;7.93;;;6.00;;
10283;SDS011;5187;52.378;9.018;2022-08-07T05:02:12;7.00;;;6.40;;
10283;SDS011;5187;52.378;9.018;2022-08-07T05:04:48;6.80;;;6.20;;
10283;SDS011;5187;52.378;9.018;2022-08-07T05:07:22;6.80;;;6.10;;
10283;SDS011;5187;52.378;9.018;2022-08-07T05:10:03;7.07;;;6.37;;
10283;SDS011;5187;52.378;9.018;2022-08-07T05:12:37;8.87;;;6.77;;
10283;SDS011;5187;52.378;9.018;2022-08-07T05:15:20;8.27;;;7.43;;
10283;SDS011;5187;52.378;9.018;2022-08-07T05:17:52;10.07;;;8.07;;
10283;SDS011;5187;52.378;9.018;2022-08-07T05:20:24;8.87;;;7.97;;
10283;SDS011;5187;52.378;9.018;2022-08-07T05:22:57;9.87;;;7.87;;
10283;SDS011;5187;52.378;9.018;2022-08-07T05:25:27;8.13;;;7.33;;
10283;SDS011;5187;52.378;9.018;2022-08-07T05:28:16;8.47;;;7.37;;
10283;SDS011;5187;52.378;9.018;2022-08-07T05:30:51;9.30;;;8.40;;
10283;SDS011;5187;52.378;9.018;2022-08-07T05:33:22;9.70;;;8.03;;
10283;SDS011;5187;52.378;9.018;2022-08-07T05:35:53;10.57;;;8.97;;
10283;SDS011;5187;52.378;9.018;2022-08-07T05:38:22;9.80;;;8.70;;
10283;SDS011;5187;52.378;9.018;2022-08-07T05:41:11;9.30;;;8.30;;
10283;SDS011;5187;52.378;9.018;2022-08-07T05:43:45;10.27;;;9.03;;
10283;SDS011;5187;52.378;9.018;2022-08-07T05:46:34;11.00;;;9.00;;
10283;SDS011;5187;52.378;9.018;2022-08-07T05:49:04;10.97;;;9.03;;
10283;SDS011;5187;52.378;9.018;2022-08-07T05:51:39;10.10;;;8.97;;
10283;SDS011;5187;52.378;9.018;2022-08-07T05:54:12;11.70;;;9.20;;
10283;SDS011;5187;52.378;9.018;2022-08-07T05:56:57;10.87;;;8.40;;
10283;SDS011;5187;52.378;9.018;2022-08-07T05:59:25;11.13;;;8.80;;
10283;SDS011;5187;52.378;9.018;2022-08-07T06:02:13;13.73;;;9.67;;
10283;SDS011;5187;52.378;9.018;2022-08-07T06:04:54;12.70;;;8.63;;
10283;SDS011;5187;52.378;9.018;2022-08-07T06:07:25;9.53;;;8.63;;
10283;SDS011;5187;52.378;9.018;2022-08-07T06:10:14;11.07;;;9.20;;
10283;SDS011;5187;52.378;9.018;2022-08-07T06:12:43;11.00;;;8.70;;
10283;SDS011;5187;52.378;9.018;2022-08-07T06:15:13;10.13;;;8.13;;
10283;SDS011;5187;52.378;9.018;2022-08-07T06:17:45;10.57;;;9.00;;
10283;SDS011;5187;52.378;9.018;2022-08-07T06:20:20;11.47;;;8.73;;
10283;SDS011;5187;52.378;9.018;2022-08-07T06:23:10;10.03;;;8.67;;
10283;SDS011;5187;52.378;9.018;2022-08-07T06:25:59;9.73;;;8.63;;
10283;SDS011;5187;52.378;9.018;2022-08-07T06:28:28;11.27;;;8.90;;
10283;SDS011;5187;52.378;9.018;2022-08-07T06:30:56;10.53;;;9.00;;
10283;SDS011;5187;52.378;9.018;2022-08-07T06:33:25;9.50;;;8.50;;
10283;SDS011;5187;52.378;9.018;2022-08-07T06:35:58;9.23;;;8.13;;
10283;SDS011;5187;52.378;9.018;2022-08-07T06:38:40;9.30;;;8.30;;
10283;SDS011;5187;52.378;9.018;2022-08-07T06:41:30;10.73;;;7.67;;
10283;SDS011;5187;52.378;9.018;2022-08-07T06:44:20;8.37;;;7.53;;
10283;SDS011;5187;52.378;9.018;2022-08-07T06:46:49;8.70;;;7.70;;
10283;SDS011;5187;52.378;9.018;2022-08-07T06:49:35;10.20;;;7.67;;
10283;SDS011;5187;52.378;9.018;2022-08-07T06:52:18;8.33;;;7.43;;
10283;SDS011;5187;52.378;9.018;2022-08-07T06:55:03;8.30;;;7.20;;
10283;SDS011;5187;52.378;9.018;2022-08-07T06:57:52;8.00;;;7.20;;
10283;SDS011;5187;52.378;9.018;2022-08-07T07:00:25;8.60;;;6.67;;
10283;SDS011;5187;52.378;9.018;2022-08-07T07:02:55;8.43;;;7.13;;
10283;SDS011;5187;52.378;9.018;2022-08-07T07:05:34;9.13;;;7.22;;
10283;SDS011;5187;52.378;9.018;2022-08-07T07:08:23;8.03;;;6.93;;
10283;SDS011;5187;52.378;9.018;2022-08-07T07:10:54;7.97;;;7.18;;
10283;SDS011;5187;52.378;9.018;2022-08-07T07:13:28;7.93;;;7.13;;
10283;SDS011;5187;52.378;9.018;2022-08-07T07:16:19;7.32;;;6.55;;
10283;SDS011;5187;52.378;9.018;2022-08-07T07:18:53;7.30;;;6.60;;
10283;SDS011;5187;52.378;9.018;2022-08-07T07:21:26;7.63;;;6.55;;
10283;SDS011;5187;52.378;9.018;2022-08-07T07:24:22;7.65;;;6.63;;
10283;SDS011;5187;52.378;9.018;2022-08-07T07:27:04;6.75;;;6.15;;
10283;SDS011;5187;52.378;9.018;2022-08-07T07:29:36;7.60;;;6.22;;
10283;SDS011;5187;52.378;9.018;2022-08-07T07:32:25;9.63;;;6.50;;
10283;SDS011;5187;52.378;9.018;2022-08-07T07:34:58;6.13;;;5.57;;
10283;SDS011;5187;52.378;9.018;2022-08-07T07:37:29;7.05;;;6.35;;
10283;SDS011;5187;52.378;9.018;2022-08-07T07:40:18;7.07;;;6.38;;
10283;SDS011;5187;52.378;9.018;2022-08-07T07:42:53;7.72;;;5.88;;
10283;SDS011;5187;52.378;9.018;2022-08-07T07:45:23;7.53;;;6.30;;
10283;SDS011;5187;52.378;9.018;2022-08-07T07:48:14;6.18;;;5.57;;
10283;SDS011;5187;52.378;9.018;2022-08-07T07:51:01;6.55;;;5.43;;
10283;SDS011;5187;52.378;9.018;2022-08-07T07:53:36;6.10;;;5.57;;
10283;SDS011;5187;52.378;9.018;2022-08-07T07:56:18;5.70;;;5.20;;
10283;SDS011;5187;52.378;9.018;2022-08-07T07:58:57;5.28;;;4.60;;
10283;SDS011;5187;52.378;9.018;2022-08-07T08:01:27;6.57;;;4.68;;
10283;SDS011;5187;52.378;9.018;2022-08-07T08:04:16;5.85;;;4.57;;
10283;SDS011;5187;52.378;9.018;2022-08-07T08:06:51;5.55;;;4.70;;
10283;SDS011;5187;52.378;9.018;2022-08-07T08:09:32;5.93;;;4.70;;
10283;SDS011;5187;52.378;9.018;2022-08-07T08:12:21;5.22;;;4.72;;
10283;SDS011;5187;52.378;9.018;2022-08-07T08:15:11;5.80;;;4.85;;
10283;SDS011;5187;52.378;9.018;2022-08-07T08:17:41;5.68;;;5.18;;
10283;SDS011;5187;52.378;9.018;2022-08-07T08:20:23;6.10;;;4.25;;
10283;SDS011;5187;52.378;9.018;2022-08-07T08:22:57;4.43;;;4.03;;
10283;SDS011;5187;52.378;9.018;2022-08-07T08:25:46;5.05;;;4.00;;
10283;SDS011;5187;52.378;9.018;2022-08-07T08:28:34;4.03;;;3.63;;
10283;SDS011;5187;52.378;9.018;2022-08-07T08:31:10;4.50;;;3.90;;
10283;SDS011;5187;52.378;9.018;2022-08-07T08:33:48;5.40;;;4.13;;
10283;SDS011;5187;52.378;9.018;2022-08-07T08:36:24;6.82;;;4.38;;
10283;SDS011;5187;52.378;9.018;2022-08-07T08:38:55;4.30;;;3.90;;
10283;SDS011;5187;52.378;9.018;2022-08-07T08:41:30;3.90;;;3.50;;
10283;SDS011;5187;52.378;9.018;2022-08-07T08:44:23;3.80;;;3.50;;
10283;SDS011;5187;52.378;9.018;2022-08-07T08:47:02;3.70;;;2.60;;
10283;SDS011;5187;52.378;9.018;2022-08-07T08:49:39;2.67;;;2.42;;
10283;SDS011;5187;52.378;9.018;2022-08-07T08:52:30;3.10;;;2.80;;
10283;SDS011;5187;52.378;9.018;2022-08-07T08:55:08;2.97;;;2.67;;
10283;SDS011;5187;52.378;9.018;2022-08-07T08:58:02;4.90;;;2.60;;
10283;SDS011;5187;52.378;9.018;2022-08-07T09:00:43;2.80;;;2.50;;
10283;SDS011;5187;52.378;9.018;2022-08-07T09:03:23;2.72;;;2.50;;
10283;SDS011;5187;52.378;9.018;2022-08-07T09:06:16;3.63;;;2.38;;
10283;SDS011;5187;52.378;9.018;2022-08-07T09:08:48;3.30;;;1.60;;
10283;SDS011;5187;52.378;9.018;2022-08-07T09:11:23;2.63;;;1.40;;
10283;SDS011;5187;52.378;9.018;2022-08-07T09:14:15;2.13;;;1.40;;
10283;SDS011;5187;52.378;9.018;2022-08-07T09:16:54;1.23;;;0.93;;
10283;SDS011;5187;52.378;9.018;2022-08-07T09:19:34;2.30;;;0.90;;
10283;SDS011;5187;52.378;9.018;2022-08-07T09:22:33;2.10;;;0.70;;
10283;SDS011;5187;52.378;9.018;2022-08-07T09:25:31;1.63;;;0.95;;
10283;SDS011;5187;52.378;9.018;2022-08-07T09:28:03;2.55;;;1.08;;
10283;SDS011;5187;52.378;9.018;2022-08-07T09:30:55;2.05;;;1.40;;
10283;SDS011;5187;52.378;9.018;2022-08-07T09:33:46;1.48;;;1.10;;
10283;SDS011;5187;52.378;9.018;2022-08-07T09:36:26;1.30;;;1.20;;
10283;SDS011;5187;52.378;9.018;2022-08-07T09:39:12;1.42;;;1.13;;
10283;SDS011;5187;52.378;9.018;2022-08-07T09:42:04;1.67;;;1.20;;
10283;SDS011;5187;52.378;9.018;2022-08-07T09:44:45;2.17;;;1.10;;
10283;SDS011;5187;52.378;9.018;2022-08-07T09:47:36;3.17;;;1.30;;
10283;SDS011;5187;52.378;9.018;2022-08-07T09:50:29;1.45;;;1.10;;
10283;SDS011;5187;52.378;9.018;2022-08-07T09:53:02;2.55;;;1.02;;
10283;SDS011;5187;52.378;9.018;2022-08-07T09:55:37;1.67;;;1.00;;
10283;SDS011;5187;52.378;9.018;2022-08-07T10:01:19;7.53;;;1.40;;
10283;SDS011;5187;52.378;9.018;2022-08-07T10:04:32;1.33;;;1.08;;
10283;SDS011;5187;52.378;9.018;2022-08-07T10:10:23;1.08;;;1.00;;
10283;SDS011;5187;52.378;9.018;2022-08-07T10:21:45;1.75;;;1.30;;
10283;SDS011;5187;52.378;9.018;2022-08-07T10:24:46;2.25;;;1.50;;
10283;SDS011;5187;52.378;9.018;2022-08-07T10:27:25;1.98;;;1.40;;
10283;SDS011;5187;52.378;9.018;2022-08-07T10:30:13;1.95;;;1.52;;
10283;SDS011;5187;52.378;9.018;2022-08-07T10:32:49;2.38;;;1.80;;
10283;SDS011;5187;52.378;9.018;2022-08-07T10:35:26;3.58;;;1.58;;
10283;SDS011;5187;52.378;9.018;2022-08-07T10:38:20;1.42;;;1.33;;
10283;SDS011;5187;52.378;9.018;2022-08-07T10:41:13;2.00;;;1.65;;
10283;SDS011;5187;52.378;9.018;2022-08-07T10:44:06;2.42;;;1.80;;
10283;SDS011;5187;52.378;9.018;2022-08-07T10:46:43;2.05;;;1.50;;
10283;SDS011;5187;52.378;9.018;2022-08-07T10:49:21;3.03;;;1.63;;
10283;SDS011;5187;52.378;9.018;2022-08-07T10:52:11;3.70;;;1.25;;
10283;SDS011;5187;52.378;9.018;2022-08-07T10:54:42;2.67;;;1.85;;
10283;SDS011;5187;52.378;9.018;2022-08-07T10:57:31;3.40;;;1.90;;
10283;SDS011;5187;52.378;9.018;2022-08-07T11:00:05;2.35;;;1.75;;
10283;SDS011;5187;52.378;9.018;2022-08-07T11:03:09;2.50;;;1.55;;
10283;SDS011;5187;52.378;9.018;2022-08-07T11:05:44;2.10;;;1.90;;
10283;SDS011;5187;52.378;9.018;2022-08-07T11:08:19;1.65;;;1.50;;
10283;SDS011;5187;52.378;9.018;2022-08-07T11:10:56;1.67;;;1.58;;
10283;SDS011;5187;52.378;9.018;2022-08-07T11:13:29;2.03;;;1.50;;
10283;SDS011;5187;52.378;9.018;2022-08-07T11:16:19;2.28;;;2.00;;
10283;SDS011;5187;52.378;9.018;2022-08-07T11:18:57;2.20;;;1.80;;
10283;SDS011;5187;52.378;9.018;2022-08-07T11:21:34;1.95;;;1.50;;
10283;SDS011;5187;52.378;9.018;2022-08-07T11:24:10;1.80;;;1.60;;
10283;SDS011;5187;52.378;9.018;2022-08-07T11:26:41;1.60;;;1.50;;
10283;SDS011;5187;52.378;9.018;2022-08-07T11:29:18;2.33;;;1.60;;
10283;SDS011;5187;52.378;9.018;2022-08-07T11:32:11;2.28;;;1.60;;
10283;SDS011;5187;52.378;9.018;2022-08-07T11:34:52;1.50;;;1.40;;
10283;SDS011;5187;52.378;9.018;2022-08-07T11:37:26;1.85;;;1.50;;
10283;SDS011;5187;52.378;9.018;2022-08-07T11:40:21;1.65;;;1.42;;
10283;SDS011;5187;52.378;9.018;2022-08-07T11:42:55;1.50;;;1.40;;
10283;SDS011;5187;52.378;9.018;2022-08-07T11:45:29;3.28;;;1.65;;
10283;SDS011;5187;52.378;9.018;2022-08-07T11:48:11;1.73;;;1.50;;
10283;SDS011;5187;52.378;9.018;2022-08-07T11:50:58;2.25;;;1.52;;
10283;SDS011;5187;52.378;9.018;2022-08-07T11:53:39;2.58;;;1.50;;
10283;SDS011;5187;52.378;9.018;2022-08-07T11:56:31;2.08;;;1.88;;
10283;SDS011;5187;52.378;9.018;2022-08-07T11:59:08;3.33;;;1.40;;
10283;SDS011;5187;52.378;9.018;2022-08-07T12:02:06;1.70;;;1.40;;
10283;SDS011;5187;52.378;9.018;2022-08-07T12:04:55;2.05;;;1.40;;
10283;SDS011;5187;52.378;9.018;2022-08-07T12:07:36;2.45;;;2.25;;
10283;SDS011;5187;52.378;9.018;2022-08-07T12:10:14;1.60;;;1.50;;
10283;SDS011;5187;52.378;9.018;2022-08-07T12:12:50;2.08;;;1.40;;
10283;SDS011;5187;52.378;9.018;2022-08-07T12:15:21;1.35;;;1.20;;
10283;SDS011;5187;52.378;9.018;2022-08-07T12:18:12;1.45;;;1.35;;
10283;SDS011;5187;52.378;9.018;2022-08-07T12:20:51;2.17;;;1.40;;
10283;SDS011;5187;52.378;9.018;2022-08-07T12:23:33;1.40;;;1.30;;
10283;SDS011;5187;52.378;9.018;2022-08-07T12:26:24;1.83;;;1.30;;
10283;SDS011;5187;52.378;9.018;2022-08-07T12:29:08;1.35;;;1.25;;
10283;SDS011;5187;52.378;9.018;2022-08-07T12:31:40;2.35;;;1.40;;
10283;SDS011;5187;52.378;9.018;2022-08-07T12:34:30;1.45;;;1.33;;
10283;SDS011;5187;52.378;9.018;2022-08-07T12:37:01;1.63;;;1.30;;
10283;SDS011;5187;52.378;9.018;2022-08-07T12:39:34;1.60;;;1.38;;
10283;SDS011;5187;52.378;9.018;2022-08-07T12:42:09;1.60;;;1.30;;
10283;SDS011;5187;52.378;9.018;2022-08-07T12:44:38;1.40;;;1.27;;
10283;SDS011;5187;52.378;9.018;2022-08-07T12:47:12;1.48;;;1.38;;
10283;SDS011;5187;52.378;9.018;2022-08-07T12:49:52;2.00;;;1.27;;
10283;SDS011;5187;52.378;9.018;2022-08-07T12:52:47;2.35;;;1.50;;
10283;SDS011;5187;52.378;9.018;2022-08-07T12:55:20;1.67;;;1.50;;
10283;SDS011;5187;52.378;9.018;2022-08-07T12:58:06;1.75;;;1.60;;
10283;SDS011;5187;52.378;9.018;2022-08-07T13:00:39;1.60;;;1.45;;
10283;SDS011;5187;52.378;9.018;2022-08-07T13:03:23;1.75;;;1.60;;
10283;SDS011;5187;52.378;9.018;2022-08-07T13:06:15;1.75;;;1.40;;
10283;SDS011;5187;52.378;9.018;2022-08-07T13:08:58;3.22;;;1.45;;
10283;SDS011;5187;52.378;9.018;2022-08-07T13:11:40;1.58;;;1.48;;
10283;SDS011;5187;52.378;9.018;2022-08-07T13:14:37;1.50;;;1.40;;
10283;SDS011;5187;52.378;9.018;2022-08-07T13:17:18;1.98;;;1.45;;
10283;SDS011;5187;52.378;9.018;2022-08-07T13:20:07;1.80;;;1.40;;
10283;SDS011;5187;52.378;9.018;2022-08-07T13:22:37;2.70;;;1.40;;
10283;SDS011;5187;52.378;9.018;2022-08-07T13:25:22;1.75;;;1.60;;
10283;SDS011;5187;52.378;9.018;2022-08-07T13:27:57;1.48;;;1.38;;
10283;SDS011;5187;52.378;9.018;2022-08-07T13:30:44;1.40;;;1.30;;
10283;SDS011;5187;52.378;9.018;2022-08-07T13:33:20;1.67;;;1.38;;
10283;SDS011;5187;52.378;9.018;2022-08-07T13:36:13;1.50;;;1.40;;
10283;SDS011;5187;52.378;9.018;2022-08-07T13:38:46;1.65;;;1.42;;
10283;SDS011;5187;52.378;9.018;2022-08-07T13:41:24;1.60;;;1.50;;
10283;SDS011;5187;52.378;9.018;2022-08-07T13:43:56;1.65;;;1.30;;
10283;SDS011;5187;52.378;9.018;2022-08-07T13:46:30;1.90;;;1.52;;
10283;SDS011;5187;52.378;9.018;2022-08-07T13:49:15;1.92;;;1.48;;
10283;SDS011;5187;52.378;9.018;2022-08-07T13:52:05;1.95;;;1.50;;
10283;SDS011;5187;52.378;9.018;2022-08-07T13:54:54;2.75;;;1.40;;
10283;SDS011;5187;52.378;9.018;2022-08-07T13:57:25;1.58;;;1.48;;
10283;SDS011;5187;52.378;9.018;2022-08-07T14:00:04;1.50;;;1.40;;
10283;SDS011;5187;52.378;9.018;2022-08-07T14:02:54;1.40;;;1.30;;
10283;SDS011;5187;52.378;9.018;2022-08-07T14:05:24;2.10;;;1.40;;
10283;SDS011;5187;52.378;9.018;2022-08-07T14:08:03;3.00;;;1.40;;
10283;SDS011;5187;52.378;9.018;2022-08-07T14:10:33;1.55;;;1.45;;
10283;SDS011;5187;52.378;9.018;2022-08-07T14:13:09;1.55;;;1.45;;
10283;SDS011;5187;52.378;9.018;2022-08-07T14:15:42;2.45;;;1.52;;
10283;SDS011;5187;52.378;9.018;2022-08-07T14:18:17;1.55;;;1.38;;
10283;SDS011;5187;52.378;9.018;2022-08-07T14:20:58;1.55;;;1.42;;
10283;SDS011;5187;52.378;9.018;2022-08-07T14:23:47;2.55;;;1.40;;
10283;SDS011;5187;52.378;9.018;2022-08-07T14:26:28;1.60;;;1.50;;
10283;SDS011;5187;52.378;9.018;2022-08-07T14:29:03;1.70;;;1.60;;
10283;SDS011;5187;52.378;9.018;2022-08-07T14:31:52;2.35;;;1.60;;
10283;SDS011;5187;52.378;9.018;2022-08-07T14:34:23;3.15;;;1.42;;
10283;SDS011;5187;52.378;9.018;2022-08-07T14:36:56;3.50;;;1.60;;
10283;SDS011;5187;52.378;9.018;2022-08-07T14:39:28;2.35;;;1.65;;
10283;SDS011;5187;52.378;9.018;2022-08-07T14:42:22;1.88;;;1.63;;
10283;SDS011;5187;52.378;9.018;2022-08-07T14:44:59;1.67;;;1.58;;
10283;SDS011;5187;52.378;9.018;2022-08-07T14:47:47;2.28;;;1.67;;
10283;SDS011;5187;52.378;9.018;2022-08-07T14:50:24;2.10;;;1.90;;
10283;SDS011;5187;52.378;9.018;2022-08-07T14:52:54;2.40;;;1.60;;
10283;SDS011;5187;52.378;9.018;2022-08-07T14:55:43;1.73;;;1.63;;
10283;SDS011;5187;52.378;9.018;2022-08-07T14:58:34;1.98;;;1.73;;
10283;SDS011;5187;52.378;9.018;2022-08-07T15:01:09;1.50;;;1.40;;
10283;SDS011;5187;52.378;9.018;2022-08-07T15:03:50;3.92;;;1.60;;
10283;SDS011;5187;52.378;9.018;2022-08-07T15:06:20;2.08;;;1.90;;
10283;SDS011;5187;52.378;9.018;2022-08-07T15:08:50;1.80;;;1.60;;
10283;SDS011;5187;52.378;9.018;2022-08-07T15:11:23;1.90;;;1.60;;
10283;SDS011;5187;52.378;9.018;2022-08-07T15:14:14;2.10;;;1.77;;
10283;SDS011;5187;52.378;9.018;2022-08-07T15:16:45;1.88;;;1.70;;
10283;SDS011;5187;52.378;9.018;2022-08-07T15:19:21;2.67;;;1.80;;
10283;SDS011;5187;52.378;9.018;2022-08-07T15:22:11;2.42;;;1.75;;
10283;SDS011;5187;52.378;9.018;2022-08-07T15:24:59;2.35;;;1.58;;
10283;SDS011;5187;52.378;9.018;2022-08-07T15:27:46;1.98;;;1.70;;
10283;SDS011;5187;52.378;9.018;2022-08-07T15:30:35;1.67;;;1.58;;
10283;SDS011;5187;52.378;9.018;2022-08-07T15:33:25;1.73;;;1.63;;
10283;SDS011;5187;52.378;9.018;2022-08-07T15:35:59;2.22;;;1.60;;
10283;SDS011;5187;52.378;9.018;2022-08-07T15:38:30;2.65;;;1.73;;
10283;SDS011;5187;52.378;9.018;2022-08-07T15:41:21;2.55;;;1.70;;
10283;SDS011;5187;52.378;9.018;2022-08-07T15:44:10;1.92;;;1.60;;
10283;SDS011;5187;52.378;9.018;2022-08-07T15:46:40;2.45;;;1.80;;
10283;SDS011;5187;52.378;9.018;2022-08-07T15:49:20;3.25;;;1.60;;
10283;SDS011;5187;52.378;9.018;2022-08-07T15:52:12;3.25;;;1.77;;
10283;SDS011;5187;52.378;9.018;2022-08-07T15:54:42;2.00;;;1.67;;
10283;SDS011;5187;52.378;9.018;2022-08-07T15:57:13;1.88;;;1.77;;
10283;SDS011;5187;52.378;9.018;2022-08-07T16:00:03;2.65;;;1.58;;
10283;SDS011;5187;52.378;9.018;2022-08-07T16:02:34;3.03;;;1.80;;
10283;SDS011;5187;52.378;9.018;2022-08-07T16:05:08;3.05;;;1.70;;
10283;SDS011;5187;52.378;9.018;2022-08-07T16:07:41;2.05;;;1.85;;
10283;SDS011;5187;52.378;9.018;2022-08-07T16:10:30;2.47;;;1.80;;
10283;SDS011;5187;52.378;9.018;2022-08-07T16:13:06;2.20;;;2.00;;
10283;SDS011;5187;52.378;9.018;2022-08-07T16:16:01;2.22;;;1.60;;
10283;SDS011;5187;52.378;9.018;2022-08-07T16:18:53;1.88;;;1.65;;
10283;SDS011;5187;52.378;9.018;2022-08-07T16:21:41;2.53;;;2.00;;
10283;SDS011;5187;52.378;9.018;2022-08-07T16:24:36;1.85;;;1.67;;
10283;SDS011;5187;52.378;9.018;2022-08-07T16:27:20;1.98;;;1.88;;
10283;SDS011;5187;52.378;9.018;2022-08-07T16:30:06;1.80;;;1.65;;
10283;SDS011;5187;52.378;9.018;2022-08-07T16:32:57;1.80;;;1.70;;